Terminal Aerodrome Forecast
Issued by NWS Pueblo, CO

Home | Current Version | Previous Version | Text Only | Print | Product List | Glossary On
Versions: 1 2 3 4 5 6 7 8 9 10 11 12 13 14 15 16 17 18 19 20 21 22 23 24
000
FTUS45 KPUB 082320
TAFPUB
TAF
KPUB 082320Z 0900/0924 08008KT P6SM BKN035
     FM090200 06006KT P6SM SCT035 BKN080
     FM090700 29006KT P6SM SCT080 BKN250
     FM091800 19007KT P6SM FEW080 BKN250=

USA.gov is the U.S. government's official web portal to all federal, state and local government web resources and services.